Piedra, California
Current Conditions -  °F | °C
As of 5:32 AM on Sunday 21 Dec 2014 (Local Time) from KFAT Reporting Station
Moderate Fog Moderate Fog  
Wind Chill: 47°   Ceiling: 200
Heat Index: 47°   Visibility: 0.06mi
Dew Point: 46°   Wind: 0mph
Humidity: 97%   Direction: NA
Pressure: 30.27"   Gusts: NA
Location:  36.81°N, 119.38°W
Report Text: KFAT 211332Z 00000KT 1/16SM R29R/1800V3000FT FG VV002 08/08 A3027 RMK AO2 T00830078
Loading
Personal Weather Stations






























Interactive Weather Map New forecast layout! Learn more

10-Day Weather Forecast

Advertisements
Track Severe Weather on mobile